createdAt,value
2023-04-06T00:02:37.042Z,12.87
2023-04-06T00:05:40.080Z,13.60
2023-04-06T00:08:43.330Z,13.33
2023-04-06T00:11:49.180Z,12.90
2023-04-06T00:14:53.800Z,15.87
2023-04-06T00:17:57.991Z,15.60
2023-04-06T00:21:01.267Z,13.83
2023-04-06T00:24:05.738Z,15.53
2023-04-06T00:27:08.748Z,13.97
2023-04-06T00:30:14.059Z,14.33
2023-04-06T00:33:17.090Z,13.07
2023-04-06T00:36:20.455Z,14.53
2023-04-06T00:39:24.121Z,15.17
2023-04-06T00:42:27.305Z,15.83
2023-04-06T00:45:31.734Z,15.50
2023-04-06T00:48:35.221Z,12.73
2023-04-06T00:51:38.452Z,14.57
2023-04-06T00:54:41.678Z,12.93
2023-04-06T00:57:45.994Z,13.33
2023-04-06T01:00:51.037Z,12.73
2023-04-06T01:03:56.987Z,13.83
2023-04-06T01:07:00.518Z,16.10
2023-04-06T01:10:11.804Z,13.57
2023-04-06T01:13:15.539Z,13.80
2023-04-06T01:16:27.812Z,16.47
2023-04-06T01:19:56.921Z,12.57
2023-04-06T01:23:07.354Z,14.20
2023-04-06T01:26:12.095Z,14.23
2023-04-06T01:29:15.431Z,13.57
2023-04-06T01:32:20.464Z,14.87
2023-04-06T01:35:28.986Z,14.33
2023-04-06T01:38:47.999Z,12.97
2023-04-06T01:41:54.141Z,14.87
2023-04-06T01:44:58.474Z,14.77
2023-04-06T01:48:01.736Z,12.93
2023-04-06T01:51:06.400Z,15.87
2023-04-06T01:54:14.675Z,13.90
2023-04-06T01:57:29.516Z,15.10
2023-04-06T02:00:41.522Z,13.47
2023-04-06T02:03:45.456Z,15.17
2023-04-06T02:06:55.401Z,13.93
2023-04-06T02:10:02.463Z,13.20
2023-04-06T02:13:12.358Z,13.50
2023-04-06T02:16:17.644Z,14.17
2023-04-06T02:19:23.407Z,14.03
2023-04-06T02:22:26.471Z,13.73
2023-04-06T02:25:31.448Z,14.07
2023-04-06T02:28:34.771Z,13.90
2023-04-06T02:31:38.650Z,13.77
2023-04-06T02:34:42.842Z,13.77
2023-04-06T02:37:46.175Z,15.40
2023-04-06T02:40:50.676Z,13.57
2023-04-06T02:44:01.845Z,16.73
2023-04-06T02:47:14.018Z,16.33
2023-04-06T02:50:22.060Z,19.23
2023-04-06T02:53:32.968Z,14.73
2023-04-06T02:56:37.709Z,15.97
2023-04-06T02:59:41.152Z,14.10
2023-04-06T03:02:51.654Z,15.77
2023-04-06T03:05:57.256Z,15.77
2023-04-06T03:09:04.405Z,15.53
2023-04-06T03:12:11.065Z,15.10
2023-04-06T03:15:36.911Z,16.33
2023-04-06T03:18:49.304Z,13.73
2023-04-06T03:21:52.676Z,15.93
2023-04-06T03:24:57.884Z,17.10
2023-04-06T03:28:02.624Z,17.50
2023-04-06T03:31:07.442Z,15.07
2023-04-06T03:34:21.996Z,18.00
2023-04-06T03:37:25.404Z,15.43
2023-04-06T03:40:32.052Z,18.00
2023-04-06T03:43:37.060Z,14.20
2023-04-06T03:46:40.572Z,17.50
2023-04-06T03:49:44.671Z,14.50
2023-04-06T03:52:49.716Z,16.37
2023-04-06T03:55:53.153Z,18.13
2023-04-06T03:58:59.007Z,15.50
2023-04-06T04:02:02.289Z,16.43
2023-04-06T04:05:07.119Z,15.17
2023-04-06T04:08:10.920Z,16.37
2023-04-06T04:11:13.986Z,15.73
2023-04-06T04:14:18.476Z,13.23
2023-04-06T04:17:22.097Z,15.30
2023-04-06T04:20:25.627Z,14.77
2023-04-06T04:23:28.675Z,20.43
2023-04-06T04:26:31.862Z,17.00
2023-04-06T04:29:37.120Z,14.53
2023-04-06T04:32:44.364Z,13.97
2023-04-06T04:35:47.507Z,14.63
2023-04-06T04:38:54.751Z,15.63
2023-04-06T04:41:58.941Z,14.43
2023-04-06T04:45:03.677Z,14.87
2023-04-06T04:48:13.956Z,18.30
2023-04-06T04:51:43.013Z,13.67
2023-04-06T04:54:49.270Z,16.63
2023-04-06T04:58:00.315Z,15.30
2023-04-06T05:01:19.760Z,12.00
2023-04-06T05:04:24.042Z,13.57
2023-04-06T05:07:29.510Z,14.07
2023-04-06T05:10:35.181Z,16.23
2023-04-06T05:13:39.192Z,16.23
2023-04-06T05:16:49.968Z,15.07
2023-04-06T05:19:53.833Z,15.97
2023-04-06T05:23:00.727Z,17.30
2023-04-06T05:26:04.203Z,14.23
2023-04-06T05:29:07.825Z,13.90
2023-04-06T05:32:14.969Z,13.07
2023-04-06T05:35:19.132Z,14.20
2023-04-06T05:38:26.808Z,19.20
2023-04-06T05:41:32.164Z,15.13
2023-04-06T05:44:39.607Z,17.10
2023-04-06T05:47:50.816Z,14.10
2023-04-06T05:51:01.892Z,18.03
2023-04-06T05:54:14.991Z,15.20
2023-04-06T05:57:19.233Z,16.07
2023-04-06T06:00:23.248Z,16.93
2023-04-06T06:03:38.721Z,17.03
2023-04-06T06:06:43.321Z,24.83
2023-04-06T06:09:52.621Z,21.03
2023-04-06T06:13:01.686Z,14.20
2023-04-06T06:16:06.526Z,15.17
2023-04-06T06:19:14.582Z,17.80
2023-04-06T06:22:17.870Z,15.77
2023-04-06T06:25:23.333Z,13.87
2023-04-06T06:28:27.451Z,15.00
2023-04-06T06:31:30.849Z,13.50
2023-04-06T06:34:35.258Z,17.33
2023-04-06T06:37:40.911Z,16.20
2023-04-06T06:40:48.743Z,14.40
2023-04-06T06:43:52.903Z,16.87
2023-04-06T06:46:56.421Z,15.17
2023-04-06T06:50:01.152Z,16.97
2023-04-06T06:53:04.320Z,11.87
2023-04-06T06:56:08.114Z,16.43
2023-04-06T06:59:12.192Z,15.93
2023-04-06T07:02:15.506Z,15.20
2023-04-06T07:05:28.052Z,12.13
2023-04-06T07:08:32.847Z,10.97
2023-04-06T07:11:35.914Z,16.47
2023-04-06T07:14:39.081Z,14.47
2023-04-06T07:17:42.859Z,16.63
2023-04-06T07:20:47.440Z,15.33
2023-04-06T07:23:51.790Z,10.27
2023-04-06T07:26:54.802Z,13.20
2023-04-06T07:29:57.882Z,12.93
2023-04-06T07:33:02.970Z,12.80
2023-04-06T07:36:08.123Z,20.80
2023-04-06T07:39:11.677Z,20.23
2023-04-06T07:42:14.720Z,29.00
2023-04-06T07:45:18.292Z,34.37
2023-04-06T07:48:22.691Z,15.70
2023-04-06T07:53:52.765Z,14.67
2023-04-06T07:56:04.821Z,12.10
2023-04-06T07:59:31.594Z,12.93
2023-04-06T08:02:53.410Z,11.67
2023-04-06T08:05:56.854Z,7.07
2023-04-06T08:09:01.215Z,8.43
2023-04-06T08:12:04.401Z,10.50
2023-04-06T08:15:08.499Z,8.60
2023-04-06T08:18:12.045Z,7.00
2023-04-06T08:21:15.067Z,6.80
2023-04-06T08:24:19.450Z,5.90
2023-04-06T08:27:22.455Z,5.97
2023-04-06T08:30:25.513Z,6.30
2023-04-06T08:33:28.532Z,6.47
2023-04-06T08:36:31.776Z,6.67
2023-04-06T08:39:36.577Z,7.10
2023-04-06T08:42:46.599Z,5.53
2023-04-06T08:45:49.888Z,5.97
2023-04-06T08:48:53.354Z,5.37
2023-04-06T08:51:58.365Z,5.07
2023-04-06T08:55:03.115Z,6.53
2023-04-06T08:58:09.842Z,8.33
2023-04-06T09:01:16.463Z,5.27
2023-04-06T09:04:20.417Z,5.60
2023-04-06T09:07:24.938Z,9.13
2023-04-06T09:10:30.747Z,4.53
2023-04-06T09:13:33.933Z,6.00
2023-04-06T09:16:43.689Z,7.10
2023-04-06T09:19:51.111Z,6.33
2023-04-06T09:22:54.292Z,6.53
2023-04-06T09:26:10.690Z,6.23
2023-04-06T09:29:25.644Z,6.23
2023-04-06T09:32:28.764Z,5.10
2023-04-06T09:35:34.151Z,5.50
2023-04-06T09:38:39.150Z,4.87
2023-04-06T09:41:44.086Z,9.60
2023-04-06T09:44:48.845Z,6.73
2023-04-06T09:47:55.047Z,12.40
2023-04-06T09:51:06.423Z,4.57
2023-04-06T09:54:11.720Z,5.27
2023-04-06T09:57:27.490Z,5.03
2023-04-06T10:00:34.885Z,5.67
2023-04-06T10:03:48.138Z,4.30
2023-04-06T10:06:53.526Z,6.07
2023-04-06T10:09:57.722Z,5.20
2023-04-06T10:13:02.621Z,4.03
2023-04-06T10:16:07.049Z,3.93
2023-04-06T10:19:18.230Z,8.40
2023-04-06T10:22:27.363Z,6.67
2023-04-06T10:25:30.615Z,5.50
2023-04-06T10:28:37.679Z,4.80
2023-04-06T10:31:45.624Z,4.37
2023-04-06T10:34:48.721Z,6.40
2023-04-06T10:38:02.932Z,4.20
2023-04-06T10:41:07.375Z,3.73
2023-04-06T10:44:22.533Z,3.77
2023-04-06T10:47:25.850Z,6.83
2023-04-06T10:50:31.843Z,3.63
2023-04-06T10:53:36.139Z,4.30
2023-04-06T10:56:40.837Z,4.60
2023-04-06T10:59:46.590Z,4.43
2023-04-06T11:02:50.045Z,4.77
2023-04-06T11:05:53.814Z,3.17
2023-04-06T11:08:58.042Z,4.67
2023-04-06T11:12:02.049Z,4.07
2023-04-06T11:15:08.292Z,3.60
2023-04-06T11:18:12.586Z,3.67
2023-04-06T11:21:15.971Z,5.40
2023-04-06T11:24:21.111Z,3.10
2023-04-06T11:27:24.567Z,3.77
2023-04-06T11:30:29.210Z,5.03
2023-04-06T11:33:38.572Z,3.60
2023-04-06T11:36:46.040Z,3.83
2023-04-06T11:39:51.907Z,3.83
2023-04-06T11:42:55.965Z,3.87
2023-04-06T11:46:06.285Z,4.37
2023-04-06T11:49:09.340Z,5.83
2023-04-06T11:52:24.906Z,4.43
2023-04-06T11:55:28.243Z,4.07
2023-04-06T11:58:32.150Z,4.83
2023-04-06T12:01:39.225Z,4.83
2023-04-06T12:04:42.475Z,5.73
2023-04-06T12:07:45.571Z,3.97
2023-04-06T12:10:48.538Z,5.43
2023-04-06T12:13:51.559Z,4.70
2023-04-06T12:16:55.867Z,3.47
2023-04-06T12:20:05.122Z,3.43
2023-04-06T12:23:09.054Z,4.53
2023-04-06T12:26:13.346Z,3.90
2023-04-06T12:29:16.745Z,3.43
2023-04-06T12:32:21.494Z,4.27
2023-04-06T12:35:24.532Z,3.73
2023-04-06T12:38:27.554Z,5.67
2023-04-06T12:41:33.536Z,6.63
2023-04-06T12:44:36.553Z,5.90
2023-04-06T12:47:41.291Z,3.90
2023-04-06T12:50:44.376Z,4.20
2023-04-06T12:53:47.913Z,5.57
2023-04-06T12:56:51.414Z,4.53
2023-04-06T12:59:54.588Z,5.33
2023-04-06T13:02:59.056Z,4.00
2023-04-06T13:06:03.096Z,5.13
2023-04-06T13:09:06.766Z,3.63
2023-04-06T13:12:10.061Z,4.77
2023-04-06T13:15:13.931Z,3.73
2023-04-06T13:18:18.535Z,5.27
2023-04-06T13:21:22.638Z,4.60
2023-04-06T13:24:25.814Z,3.80
2023-04-06T13:27:29.328Z,4.18
2023-04-06T13:30:32.416Z,4.10
2023-04-06T13:33:37.334Z,4.28
2023-04-06T13:36:42.376Z,4.60
2023-04-06T13:39:45.400Z,7.37
2023-04-06T13:42:48.974Z,5.03
2023-04-06T13:45:52.902Z,4.90
2023-04-06T13:48:57.377Z,4.47
2023-04-06T13:52:00.726Z,3.80
2023-04-06T13:55:04.183Z,4.27
2023-04-06T13:58:07.284Z,4.63
2023-04-06T14:01:11.787Z,3.70
2023-04-06T14:04:16.418Z,4.37
2023-04-06T14:07:19.474Z,3.97
2023-04-06T14:10:24.785Z,4.07
2023-04-06T14:13:28.407Z,6.87
2023-04-06T14:16:32.278Z,4.87
2023-04-06T14:19:37.192Z,4.10
2023-04-06T14:22:40.284Z,4.53
2023-04-06T14:25:43.503Z,4.20
2023-04-06T14:28:47.380Z,4.33
2023-04-06T14:31:50.854Z,5.07
2023-04-06T14:34:55.407Z,5.07
2023-04-06T14:37:59.226Z,3.37
2023-04-06T14:41:02.628Z,6.60
2023-04-06T14:44:06.587Z,3.67
2023-04-06T14:47:09.620Z,4.23
2023-04-06T14:50:14.377Z,6.47
2023-04-06T14:53:17.356Z,4.17
2023-04-06T14:56:24.343Z,4.40
2023-04-06T15:02:35.684Z,3.83
2023-04-06T15:05:40.366Z,4.37
2023-04-06T15:08:43.998Z,4.07
2023-04-06T15:11:47.011Z,5.47
2023-04-06T15:14:50.013Z,4.10
2023-04-06T15:17:53.002Z,4.23
2023-04-06T15:20:57.360Z,5.53
2023-04-06T15:24:00.519Z,4.00
2023-04-06T15:27:05.985Z,5.93
2023-04-06T15:30:10.394Z,4.53
2023-04-06T15:33:13.448Z,5.63
2023-04-06T15:36:29.723Z,4.70
2023-04-06T15:39:34.233Z,5.33
2023-04-06T15:42:37.569Z,4.40
2023-04-06T15:45:41.767Z,3.87
2023-04-06T15:48:45.511Z,4.17
2023-04-06T15:51:50.483Z,4.17
2023-04-06T15:54:54.129Z,3.67
2023-04-06T15:57:57.178Z,5.93
2023-04-06T16:01:00.364Z,4.17
2023-04-06T16:04:03.560Z,4.53
2023-04-06T16:07:08.026Z,4.20
2023-04-06T16:10:11.821Z,5.73
2023-04-06T16:13:14.857Z,3.80
2023-04-06T16:16:17.848Z,5.87
2023-04-06T16:19:21.285Z,4.57
2023-04-06T16:22:25.886Z,3.87
2023-04-06T16:25:28.980Z,5.60
2023-04-06T16:28:33.045Z,4.90
2023-04-06T16:31:36.404Z,4.03
2023-04-06T16:34:40.095Z,5.10
2023-04-06T16:37:46.609Z,4.73
2023-04-06T16:40:49.737Z,4.47
2023-04-06T16:43:53.652Z,4.60
2023-04-06T16:46:56.803Z,4.77
2023-04-06T16:50:05.955Z,4.77
2023-04-06T16:53:10.866Z,4.80
2023-04-06T16:56:14.360Z,3.80
2023-04-06T16:59:17.384Z,4.23
2023-04-06T17:02:20.876Z,4.97
2023-04-06T17:05:26.502Z,5.63
2023-04-06T17:08:31.258Z,5.60
2023-04-06T17:11:46.149Z,5.27
2023-04-06T17:14:50.382Z,4.60
2023-04-06T17:17:54.108Z,4.27
2023-04-06T17:20:57.251Z,4.43
2023-04-06T17:24:02.158Z,4.80
2023-04-06T17:27:05.310Z,5.93
2023-04-06T17:30:12.341Z,4.70
2023-04-06T17:33:17.707Z,3.90
2023-04-06T17:36:22.009Z,3.93
2023-04-06T17:39:26.871Z,6.40
2023-04-06T17:42:29.906Z,4.80
2023-04-06T17:45:33.053Z,6.93
2023-04-06T17:48:36.291Z,5.10
2023-04-06T17:51:39.248Z,5.43
2023-04-06T17:54:43.595Z,8.47
2023-04-06T17:57:46.799Z,5.90
2023-04-06T18:00:49.818Z,7.17
2023-04-06T18:03:53.209Z,7.00
2023-04-06T18:06:56.449Z,8.40
2023-04-06T18:10:01.748Z,7.13
2023-04-06T18:13:05.001Z,6.23
2023-04-06T18:16:08.283Z,6.60
2023-04-06T18:19:11.409Z,6.77
2023-04-06T18:22:14.699Z,6.00
2023-04-06T18:25:19.280Z,9.40
2023-04-06T18:28:22.248Z,8.07
2023-04-06T18:31:25.386Z,7.50
2023-04-06T18:34:28.985Z,7.07
2023-04-06T18:37:31.965Z,9.00
2023-04-06T18:40:38.681Z,8.03
2023-04-06T18:43:42.005Z,9.33
2023-04-06T18:46:46.025Z,9.23
2023-04-06T18:49:50.029Z,8.80
2023-04-06T18:52:53.172Z,7.70
2023-04-06T18:55:58.560Z,11.33
2023-04-06T18:59:01.548Z,6.87
2023-04-06T19:02:04.635Z,12.07
2023-04-06T19:05:08.723Z,10.90
2023-04-06T19:08:13.065Z,11.07
2023-04-06T19:11:18.642Z,7.53
2023-04-06T19:14:21.814Z,9.10
2023-04-06T19:17:25.088Z,10.13
2023-04-06T19:20:28.282Z,8.57
2023-04-06T19:23:31.578Z,10.77
2023-04-06T19:26:35.903Z,9.50
2023-04-06T19:29:39.224Z,11.90
2023-04-06T19:32:42.262Z,8.57
2023-04-06T19:35:45.314Z,10.93
2023-04-06T19:38:48.384Z,11.13
2023-04-06T19:41:53.336Z,11.33
2023-04-06T19:44:57.443Z,9.83
2023-04-06T19:48:01.525Z,9.53
2023-04-06T19:51:04.565Z,13.63
2023-04-06T19:54:07.804Z,12.53
2023-04-06T19:57:12.163Z,10.00
2023-04-06T20:00:16.340Z,13.30
2023-04-06T20:03:19.999Z,11.30
2023-04-06T20:06:23.328Z,11.03
2023-04-06T20:09:26.576Z,11.07
2023-04-06T20:12:30.959Z,10.50
2023-04-06T20:15:34.007Z,12.27
2023-04-06T20:18:37.066Z,12.37
2023-04-06T20:21:41.009Z,10.87
2023-04-06T20:24:44.012Z,10.93
2023-04-06T20:27:48.553Z,18.63
2023-04-06T20:30:53.016Z,10.60
2023-04-06T20:34:12.350Z,14.23
2023-04-06T20:37:15.666Z,11.80
2023-04-06T20:40:20.861Z,11.27
2023-04-06T20:43:28.215Z,11.90
2023-04-06T20:46:31.423Z,14.73
2023-04-06T20:49:34.558Z,13.13
2023-04-06T20:52:38.059Z,13.23
2023-04-06T20:55:41.745Z,13.93
2023-04-06T20:58:46.304Z,12.10
2023-04-06T21:01:49.857Z,13.43
2023-04-06T21:04:52.934Z,11.37
2023-04-06T21:07:56.624Z,14.43
2023-04-06T21:10:59.735Z,13.60
2023-04-06T21:14:04.116Z,11.47
2023-04-06T21:17:07.705Z,14.30
2023-04-06T21:20:12.544Z,10.57
2023-04-06T21:23:16.178Z,12.27
2023-04-06T21:26:19.765Z,11.80
2023-04-06T21:29:24.054Z,13.83
2023-04-06T21:32:27.667Z,12.17
2023-04-06T21:35:31.244Z,14.63
2023-04-06T21:38:35.096Z,12.33
2023-04-06T21:41:40.306Z,17.60
2023-04-06T21:44:44.623Z,14.97
2023-04-06T21:47:47.648Z,13.80
2023-04-06T21:50:50.770Z,11.73
2023-04-06T21:53:56.282Z,13.47
2023-04-06T21:56:59.854Z,14.83
2023-04-06T22:00:09.685Z,16.47
2023-04-06T22:03:18.226Z,11.37
2023-04-06T22:06:22.826Z,15.13
2023-04-06T22:09:25.877Z,14.70
2023-04-06T22:12:29.005Z,15.10
2023-04-06T22:15:34.114Z,13.13
2023-04-06T22:18:39.148Z,14.33
2023-04-06T22:21:42.622Z,17.30
2023-04-06T22:24:45.797Z,12.53
2023-04-06T22:27:49.288Z,17.90
2023-04-06T22:30:53.670Z,16.77
2023-04-06T22:33:57.116Z,15.23
2023-04-06T22:37:00.149Z,16.23
2023-04-06T22:40:03.410Z,16.67
2023-04-06T22:43:09.493Z,13.70
2023-04-06T22:46:13.776Z,16.23
2023-04-06T22:49:16.862Z,17.17
2023-04-06T22:52:20.024Z,15.50
2023-04-06T22:55:23.373Z,14.67
2023-04-06T22:58:26.527Z,15.20
2023-04-06T23:01:31.100Z,17.50
2023-04-06T23:04:34.453Z,15.90
2023-04-06T23:07:37.522Z,15.10
2023-04-06T23:10:42.010Z,16.40
2023-04-06T23:13:45.762Z,16.10
2023-04-06T23:16:50.245Z,23.50
2023-04-06T23:19:53.302Z,18.13
2023-04-06T23:22:56.321Z,23.57
2023-04-06T23:25:59.359Z,16.40
2023-04-06T23:29:02.523Z,16.57
2023-04-06T23:32:07.235Z,21.00
2023-04-06T23:35:11.280Z,19.40
2023-04-06T23:38:14.293Z,16.87
2023-04-06T23:41:17.294Z,16.67
2023-04-06T23:44:20.900Z,15.47
2023-04-06T23:47:25.396Z,19.17
2023-04-06T23:50:28.849Z,15.97
2023-04-06T23:53:34.509Z,16.77
2023-04-06T23:56:38.315Z,17.30
2023-04-06T23:59:41.398Z,18.80
